createdAt,value
2019-02-28T00:01:29.224Z,1.92
2019-02-28T00:03:58.035Z,1.88
2019-02-28T00:06:25.649Z,1.68
2019-02-28T00:08:53.691Z,1.77
2019-02-28T00:11:21.350Z,1.89
2019-02-28T00:13:48.870Z,1.86
2019-02-28T00:16:16.353Z,1.94
2019-02-28T00:18:43.973Z,2.11
2019-02-28T00:21:11.500Z,2.06
2019-02-28T00:23:39.070Z,1.90
2019-02-28T00:26:11.378Z,2.08
2019-02-28T00:28:35.911Z,1.94
2019-02-28T00:31:03.493Z,2.02
2019-02-28T00:33:31.620Z,1.97
2019-02-28T00:35:59.209Z,2.01
2019-02-28T00:38:29.452Z,2.07
2019-02-28T00:40:56.042Z,2.19
2019-02-28T00:43:25.152Z,1.92
2019-02-28T00:45:52.879Z,2.01
2019-02-28T00:48:21.677Z,1.88
2019-02-28T00:50:49.776Z,1.73
2019-02-28T00:53:17.233Z,1.78
2019-02-28T00:55:45.880Z,1.85
2019-02-28T00:58:13.530Z,1.94
2019-02-28T01:00:41.089Z,1.77
2019-02-28T01:03:08.564Z,1.71
2019-02-28T01:05:36.654Z,1.61
2019-02-28T01:08:04.255Z,1.56
2019-02-28T01:10:31.722Z,1.51
2019-02-28T01:12:59.194Z,1.64
2019-02-28T01:15:26.675Z,1.52
2019-02-28T01:17:54.152Z,1.52
2019-02-28T01:20:21.598Z,1.67
2019-02-28T01:22:49.748Z,1.58
2019-02-28T01:25:17.350Z,1.45
2019-02-28T01:27:44.813Z,1.57
2019-02-28T01:30:12.402Z,1.60
2019-02-28T01:32:39.922Z,1.60
2019-02-28T01:35:07.470Z,1.59
2019-02-28T01:37:34.925Z,1.40
2019-02-28T01:40:04.386Z,1.49
2019-02-28T01:42:31.875Z,1.45
2019-02-28T01:44:59.355Z,1.68
2019-02-28T01:47:26.870Z,1.60
2019-02-28T01:49:57.767Z,1.58
2019-02-28T01:52:23.705Z,1.85
2019-02-28T01:54:51.210Z,1.57
2019-02-28T01:57:18.680Z,1.35
2019-02-28T01:59:46.140Z,1.53
2019-02-28T02:02:13.630Z,1.45
2019-02-28T02:04:43.168Z,1.69
2019-02-28T02:07:10.463Z,1.88
2019-02-28T02:09:37.975Z,1.77
2019-02-28T02:12:05.399Z,1.69
2019-02-28T02:14:32.865Z,1.62
2019-02-28T02:17:01.073Z,1.58
2019-02-28T02:19:29.263Z,1.45
2019-02-28T02:21:56.730Z,1.50
2019-02-28T02:24:27.584Z,1.59
2019-02-28T02:26:55.349Z,1.50
2019-02-28T02:29:22.794Z,1.54
2019-02-28T02:31:50.363Z,1.65
2019-02-28T02:34:17.947Z,1.53
2019-02-28T02:36:52.964Z,1.49
2019-02-28T02:39:17.563Z,1.57
2019-02-28T02:41:44.223Z,1.49
2019-02-28T02:44:11.712Z,1.39
2019-02-28T02:46:39.209Z,1.53
2019-02-28T02:49:06.690Z,1.47
2019-02-28T02:51:34.197Z,1.61
2019-02-28T02:54:01.654Z,1.44
2019-02-28T02:56:29.146Z,1.18
2019-02-28T02:59:01.199Z,1.26
2019-02-28T03:01:26.114Z,1.27
2019-02-28T03:03:53.568Z,1.72
2019-02-28T03:06:21.088Z,1.56
2019-02-28T03:08:48.550Z,1.22
2019-02-28T03:11:16.071Z,1.59
2019-02-28T03:13:44.174Z,1.31
2019-02-28T03:16:11.910Z,1.36
2019-02-28T03:18:39.390Z,1.32
2019-02-28T03:21:06.851Z,1.25
2019-02-28T03:23:39.814Z,1.60
2019-02-28T03:26:06.945Z,1.84
2019-02-28T03:28:33.356Z,2.09
2019-02-28T03:31:12.035Z,1.52
2019-02-28T03:33:30.368Z,1.69
2019-02-28T03:35:57.809Z,1.57
2019-02-28T03:38:25.292Z,1.24
2019-02-28T03:40:52.810Z,1.53
2019-02-28T03:43:20.249Z,1.28
2019-02-28T03:45:47.710Z,1.20
2019-02-28T03:48:15.200Z,1.31
2019-02-28T03:50:42.676Z,1.39
2019-02-28T03:53:10.135Z,1.27
2019-02-28T03:55:40.784Z,1.17
2019-02-28T03:58:06.991Z,1.36
2019-02-28T04:00:35.033Z,1.37
2019-02-28T04:03:02.643Z,1.35
2019-02-28T04:05:30.654Z,1.31
2019-02-28T04:07:58.181Z,1.37
2019-02-28T04:10:25.690Z,1.28
2019-02-28T04:12:53.215Z,1.22
2019-02-28T04:15:20.917Z,1.30
2019-02-28T04:17:48.390Z,1.11
2019-02-28T04:20:16.331Z,1.10
2019-02-28T04:22:43.767Z,0.91
2019-02-28T04:25:11.410Z,1.04
2019-02-28T04:27:40.226Z,1.21
2019-02-28T04:30:08.635Z,1.03
2019-02-28T04:32:36.069Z,1.06
2019-02-28T04:35:03.730Z,1.05
2019-02-28T04:37:31.161Z,0.88
2019-02-28T04:39:58.590Z,0.99
2019-02-28T04:42:26.073Z,0.98
2019-02-28T04:44:53.543Z,0.87
2019-02-28T04:47:21.133Z,1.02
2019-02-28T04:49:48.629Z,0.96
2019-02-28T04:52:16.097Z,0.96
2019-02-28T04:54:43.571Z,0.84
2019-02-28T04:57:11.094Z,0.78
2019-02-28T04:59:38.536Z,0.79
2019-02-28T05:02:06.128Z,0.78
2019-02-28T05:04:36.113Z,1.11
2019-02-28T05:07:03.259Z,0.75
2019-02-28T05:09:30.718Z,1.05
2019-02-28T05:11:58.215Z,1.22
2019-02-28T05:14:25.651Z,0.70
2019-02-28T05:16:53.148Z,0.93
2019-02-28T05:19:20.618Z,0.85
2019-02-28T05:21:50.599Z,0.67
2019-02-28T05:24:17.510Z,0.78
2019-02-28T05:26:44.986Z,0.86
2019-02-28T05:29:13.064Z,1.20
2019-02-28T05:31:40.638Z,1.39
2019-02-28T05:34:08.107Z,1.18
2019-02-28T05:36:37.913Z,0.84
2019-02-28T05:39:05.760Z,0.89
2019-02-28T05:41:33.223Z,1.32
2019-02-28T05:44:03.338Z,1.35
2019-02-28T05:46:30.059Z,1.00
2019-02-28T05:48:57.549Z,1.61
2019-02-28T05:51:25.782Z,1.66
2019-02-28T05:53:53.349Z,1.28
2019-02-28T05:56:21.909Z,1.22
2019-02-28T05:58:52.494Z,1.08
2019-02-28T06:01:18.867Z,0.95
2019-02-28T06:03:46.325Z,1.14
2019-02-28T06:06:13.797Z,1.66
2019-02-28T06:08:41.348Z,1.39
2019-02-28T06:11:08.854Z,1.23
2019-02-28T06:13:37.220Z,1.23
2019-02-28T06:16:04.745Z,1.16
2019-02-28T06:18:33.506Z,1.23
2019-02-28T06:21:01.250Z,0.80
2019-02-28T06:23:28.698Z,0.81
2019-02-28T06:25:59.329Z,0.80
2019-02-28T06:28:27.625Z,0.74
2019-02-28T06:30:55.032Z,0.84
2019-02-28T06:33:22.666Z,0.82
2019-02-28T06:35:53.693Z,1.48
2019-02-28T06:38:19.904Z,1.25
2019-02-28T06:40:47.479Z,0.92
2019-02-28T06:43:14.959Z,1.03
2019-02-28T06:45:42.490Z,0.78
2019-02-28T06:48:09.989Z,1.10
2019-02-28T06:50:37.450Z,1.47
2019-02-28T06:53:04.887Z,1.26
2019-02-28T06:55:32.407Z,1.06
2019-02-28T06:57:59.885Z,0.90
2019-02-28T07:00:27.410Z,0.89
2019-02-28T07:02:54.895Z,1.03
2019-02-28T07:05:25.751Z,1.05
2019-02-28T07:07:51.751Z,1.02
2019-02-28T07:10:19.273Z,0.89
2019-02-28T07:12:46.775Z,0.97
2019-02-28T07:15:14.410Z,0.80
2019-02-28T07:17:42.603Z,1.09
2019-02-28T07:20:11.789Z,1.37
2019-02-28T07:22:40.109Z,1.36
2019-02-28T07:25:09.562Z,1.26
2019-02-28T07:27:37.473Z,1.04
2019-02-28T07:30:06.900Z,1.13
2019-02-28T07:32:35.043Z,1.21
2019-02-28T07:35:02.640Z,1.24
2019-02-28T07:37:30.097Z,0.95
2019-02-28T07:39:57.591Z,0.80
2019-02-28T07:42:25.023Z,1.19
2019-02-28T07:44:53.724Z,1.00
2019-02-28T07:47:21.372Z,1.03
2019-02-28T07:49:50.178Z,1.27
2019-02-28T07:52:17.952Z,1.71
2019-02-28T07:54:47.434Z,1.76
2019-02-28T07:57:17.163Z,1.62
2019-02-28T07:59:44.293Z,1.44
2019-02-28T08:02:11.774Z,1.25
2019-02-28T08:04:39.249Z,1.31
2019-02-28T08:07:06.750Z,1.15
2019-02-28T08:09:36.754Z,1.20
2019-02-28T08:12:04.017Z,1.38
2019-02-28T08:14:31.494Z,1.57
2019-02-28T08:16:59.002Z,1.61
2019-02-28T08:19:27.961Z,1.57
2019-02-28T08:21:55.708Z,1.32
2019-02-28T08:24:23.216Z,1.42
2019-02-28T08:26:53.499Z,1.38
2019-02-28T08:29:20.151Z,1.73
2019-02-28T08:31:47.627Z,1.92
2019-02-28T08:34:15.110Z,1.95
2019-02-28T08:36:43.789Z,2.07
2019-02-28T08:39:17.450Z,2.04
2019-02-28T08:41:44.954Z,1.70
2019-02-28T08:44:12.474Z,1.67
2019-02-28T08:46:39.970Z,2.07
2019-02-28T08:49:07.569Z,2.04
2019-02-28T08:51:35.410Z,1.87
2019-02-28T08:54:02.853Z,2.22
2019-02-28T08:56:32.203Z,2.35
2019-02-28T08:58:59.722Z,2.15
2019-02-28T09:01:27.214Z,2.21
2019-02-28T09:03:54.692Z,2.58
2019-02-28T09:06:22.146Z,3.45
2019-02-28T09:08:49.678Z,3.52
2019-02-28T09:11:20.634Z,4.16
2019-02-28T09:13:46.550Z,5.14
2019-02-28T09:16:16.239Z,4.56
2019-02-28T09:18:44.821Z,4.54
2019-02-28T09:21:12.412Z,5.10
2019-02-28T09:23:40.036Z,5.42
2019-02-28T09:26:07.541Z,5.87
2019-02-28T09:28:35.079Z,6.25
2019-02-28T09:31:04.933Z,7.57
2019-02-28T09:33:32.302Z,6.74
2019-02-28T09:35:59.833Z,7.58
2019-02-28T09:38:27.289Z,6.70
2019-02-28T09:40:54.802Z,7.56
2019-02-28T09:43:23.939Z,8.94
2019-02-28T09:45:51.672Z,8.65
2019-02-28T09:48:19.164Z,7.16
2019-02-28T09:50:46.822Z,8.40
2019-02-28T09:53:16.538Z,9.13
2019-02-28T09:55:43.711Z,9.44
2019-02-28T09:58:11.225Z,9.06
2019-02-28T10:00:38.818Z,8.56
2019-02-28T10:03:06.898Z,8.93
2019-02-28T10:05:34.554Z,9.58
2019-02-28T10:08:03.154Z,8.34
2019-02-28T10:10:30.737Z,9.17
2019-02-28T10:12:58.211Z,8.52
2019-02-28T10:15:25.661Z,8.61
2019-02-28T10:17:53.130Z,8.85
2019-02-28T10:20:26.280Z,9.43
2019-02-28T10:22:52.110Z,8.93
2019-02-28T10:25:19.630Z,9.24
2019-02-28T10:27:47.091Z,8.72
2019-02-28T10:30:16.795Z,8.44
2019-02-28T10:32:44.491Z,9.16
2019-02-28T10:35:12.034Z,10.09
2019-02-28T10:37:39.520Z,9.05
2019-02-28T10:40:08.394Z,10.38
2019-02-28T10:42:36.982Z,8.73
2019-02-28T10:45:06.566Z,9.44
2019-02-28T10:47:34.563Z,8.66
2019-02-28T10:50:02.093Z,9.35
2019-02-28T10:52:30.592Z,10.51
2019-02-28T10:54:58.228Z,10.21
2019-02-28T10:57:25.758Z,10.59
2019-02-28T10:59:55.214Z,10.45
2019-02-28T11:02:22.810Z,9.62
2019-02-28T11:04:50.397Z,10.36
2019-02-28T11:07:17.983Z,11.30
2019-02-28T11:09:45.594Z,11.35
2019-02-28T11:12:13.058Z,11.25
2019-02-28T11:14:41.019Z,11.32
2019-02-28T11:17:13.473Z,11.28
2019-02-28T11:19:38.163Z,11.20
2019-02-28T11:22:05.994Z,10.89
2019-02-28T11:24:33.568Z,9.83
2019-02-28T11:27:01.082Z,9.78
2019-02-28T11:29:28.583Z,9.80
2019-02-28T11:31:56.082Z,10.31
2019-02-28T11:34:23.980Z,10.54
2019-02-28T11:36:51.550Z,9.71
2019-02-28T11:39:19.686Z,9.78
2019-02-28T11:41:49.264Z,10.00
2019-02-28T11:44:16.911Z,11.02
2019-02-28T11:46:44.856Z,11.03
2019-02-28T11:49:13.666Z,10.31
2019-02-28T11:51:41.184Z,10.78
2019-02-28T11:54:12.234Z,11.34
2019-02-28T11:56:38.061Z,12.06
2019-02-28T11:59:05.511Z,11.10
2019-02-28T12:01:33.110Z,11.44
2019-02-28T12:04:00.670Z,12.02
2019-02-28T12:06:28.176Z,11.92
2019-02-28T12:08:55.688Z,11.72
2019-02-28T12:11:25.071Z,12.38
2019-02-28T12:13:55.127Z,12.10
2019-02-28T12:16:21.893Z,12.63
2019-02-28T12:18:49.404Z,13.38
2019-02-28T12:21:16.878Z,13.01
2019-02-28T12:23:44.370Z,13.16
2019-02-28T12:26:14.352Z,12.12
2019-02-28T12:28:41.262Z,11.78
2019-02-28T12:31:08.890Z,11.65
2019-02-28T12:33:36.425Z,11.81
2019-02-28T12:36:03.870Z,11.64
2019-02-28T12:38:31.382Z,12.32
2019-02-28T12:40:58.917Z,11.81
2019-02-28T12:43:26.513Z,13.54
2019-02-28T12:45:56.858Z,12.34
2019-02-28T12:48:23.755Z,11.39
2019-02-28T12:50:51.350Z,11.91
2019-02-28T12:53:24.254Z,11.43
2019-02-28T12:55:50.003Z,11.38
2019-02-28T12:58:17.567Z,11.98
2019-02-28T13:00:45.304Z,12.38
2019-02-28T13:03:19.329Z,12.20
2019-02-28T13:05:42.670Z,12.63
2019-02-28T13:08:10.289Z,13.57
2019-02-28T13:10:37.848Z,13.43
2019-02-28T13:13:07.515Z,12.65
2019-02-28T13:15:35.112Z,12.34
2019-02-28T13:18:07.535Z,11.66
2019-02-28T13:20:33.824Z,11.98
2019-02-28T13:23:01.836Z,11.80
2019-02-28T13:25:29.339Z,11.81
2019-02-28T13:27:56.946Z,11.90
2019-02-28T13:30:24.771Z,12.14
2019-02-28T13:32:52.568Z,12.46
2019-02-28T13:35:22.420Z,12.34
2019-02-28T13:37:49.869Z,12.21
2019-02-28T13:40:17.449Z,11.99
2019-02-28T13:42:44.935Z,12.15
2019-02-28T13:45:20.816Z,12.29
2019-02-28T13:47:46.242Z,12.82
2019-02-28T13:50:17.183Z,13.15
2019-02-28T13:52:44.529Z,12.58
2019-02-28T13:55:14.348Z,12.78
2019-02-28T13:57:43.720Z,13.00
2019-02-28T14:00:19.865Z,12.59
2019-02-28T14:02:47.333Z,12.94
2019-02-28T14:05:15.058Z,13.49
2019-02-28T14:07:43.065Z,13.77
2019-02-28T14:10:11.685Z,12.83
2019-02-28T14:12:39.710Z,13.31
2019-02-28T14:15:09.715Z,15.85
2019-02-28T14:17:38.055Z,14.55
2019-02-28T14:20:06.155Z,13.34
2019-02-28T14:22:34.028Z,12.80
2019-02-28T14:25:05.168Z,12.71
2019-02-28T14:27:31.698Z,12.67
2019-02-28T14:29:59.653Z,12.63
2019-02-28T14:32:27.736Z,13.08
2019-02-28T14:34:57.307Z,12.83
2019-02-28T14:37:25.511Z,13.06
2019-02-28T14:39:53.246Z,11.92
2019-02-28T14:42:21.320Z,12.78
2019-02-28T14:44:49.320Z,13.27
2019-02-28T14:47:17.379Z,13.79
2019-02-28T14:49:44.954Z,13.64
2019-02-28T14:52:14.294Z,12.89
2019-02-28T14:54:42.043Z,14.48
2019-02-28T14:57:13.379Z,13.57
2019-02-28T14:59:39.910Z,12.62
2019-02-28T15:02:07.560Z,13.76
2019-02-28T15:04:35.096Z,12.44
2019-02-28T15:07:04.148Z,12.47
2019-02-28T15:09:32.124Z,12.28
2019-02-28T15:11:59.981Z,11.77
2019-02-28T15:14:27.686Z,11.21
2019-02-28T15:16:55.500Z,10.27
2019-02-28T15:19:24.371Z,10.26
2019-02-28T15:21:52.444Z,10.13
2019-02-28T15:24:20.208Z,11.42
2019-02-28T15:26:47.910Z,11.95
2019-02-28T15:29:15.469Z,12.64
2019-02-28T15:31:44.275Z,12.16
2019-02-28T15:34:12.220Z,11.92
2019-02-28T15:36:39.822Z,11.77
2019-02-28T15:39:07.375Z,12.68
2019-02-28T15:41:35.355Z,11.77
2019-02-28T15:44:03.344Z,11.66
2019-02-28T15:46:31.054Z,11.97
2019-02-28T15:48:59.035Z,11.23
2019-02-28T15:51:29.393Z,11.37
2019-02-28T15:53:56.830Z,11.08
2019-02-28T15:56:24.673Z,11.09
2019-02-28T15:58:52.570Z,10.32
2019-02-28T16:01:21.669Z,10.37
2019-02-28T16:03:51.322Z,10.25
2019-02-28T16:06:20.428Z,11.52
2019-02-28T16:08:48.583Z,9.98
2019-02-28T16:11:17.077Z,9.64
2019-02-28T16:13:45.052Z,10.48
2019-02-28T16:16:13.157Z,10.82
2019-02-28T16:18:44.045Z,10.25
2019-02-28T16:21:11.093Z,11.86
2019-02-28T16:23:39.060Z,11.47
2019-02-28T16:26:07.080Z,11.96
2019-02-28T16:28:35.051Z,11.65
2019-02-28T16:31:06.280Z,11.08
2019-02-28T16:33:33.283Z,11.70
2019-02-28T16:36:02.482Z,11.21
2019-02-28T16:38:30.511Z,11.53
2019-02-28T16:41:00.839Z,12.09
2019-02-28T16:43:28.598Z,11.34
2019-02-28T16:45:57.457Z,11.54
2019-02-28T16:48:25.473Z,11.64
2019-02-28T16:50:56.941Z,11.24
2019-02-28T16:53:25.117Z,10.64
2019-02-28T16:55:53.152Z,10.97
2019-02-28T16:58:21.839Z,10.43
2019-02-28T17:00:50.815Z,9.93
2019-02-28T17:03:18.853Z,10.66
2019-02-28T17:05:46.922Z,10.94
2019-02-28T17:08:15.605Z,9.60
2019-02-28T17:10:45.112Z,10.10
2019-02-28T17:13:30.900Z,8.81
2019-02-28T17:16:21.303Z,10.31
2019-02-28T17:18:49.451Z,9.69
2019-02-28T17:21:18.164Z,9.51
2019-02-28T17:23:46.250Z,9.84
2019-02-28T17:26:14.481Z,9.05
2019-02-28T17:28:51.048Z,8.28
2019-02-28T17:31:44.549Z,7.89
2019-02-28T17:34:16.711Z,8.03
2019-02-28T17:36:47.681Z,8.14
2019-02-28T17:39:15.929Z,7.85
2019-02-28T17:41:43.818Z,7.80
2019-02-28T17:44:45.236Z,9.02
2019-02-28T17:48:09.649Z,9.13
2019-02-28T17:51:07.803Z,8.05
2019-02-28T17:54:07.378Z,7.17
2019-02-28T17:56:57.799Z,8.93
2019-02-28T18:00:00.558Z,9.82
2019-02-28T18:02:59.971Z,7.70
2019-02-28T18:05:57.953Z,9.07
2019-02-28T18:08:37.600Z,9.06
2019-02-28T18:11:40.397Z,7.93
2019-02-28T18:14:21.282Z,8.78
2019-02-28T18:17:04.177Z,7.97
2019-02-28T18:20:19.276Z,8.56
2019-02-28T18:23:21.287Z,7.48
2019-02-28T18:26:38.560Z,7.62
2019-02-28T18:29:40.073Z,7.79
2019-02-28T18:32:08.261Z,8.33
2019-02-28T18:34:36.933Z,10.11
2019-02-28T18:37:05.950Z,8.69
2019-02-28T18:39:34.099Z,7.61
2019-02-28T18:42:02.171Z,7.31
2019-02-28T18:44:30.291Z,7.89
2019-02-28T18:47:02.949Z,8.18
2019-02-28T18:49:30.176Z,9.03
2019-02-28T18:51:59.829Z,9.35
2019-02-28T18:54:28.961Z,7.18
2019-02-28T18:56:57.052Z,7.89
2019-02-28T18:59:25.295Z,8.25
2019-02-28T19:01:53.833Z,8.21
2019-02-28T19:04:21.892Z,7.93
2019-02-28T19:06:51.046Z,7.55
2019-02-28T19:09:20.985Z,8.41
2019-02-28T19:11:49.239Z,7.66
2019-02-28T19:14:17.677Z,7.87
2019-02-28T19:16:46.995Z,8.26
2019-02-28T19:19:15.251Z,7.43
2019-02-28T19:21:43.342Z,7.37
2019-02-28T19:24:14.024Z,7.79
2019-02-28T19:26:42.078Z,7.50
2019-02-28T19:29:10.554Z,7.33
2019-02-28T19:31:38.734Z,7.28
2019-02-28T19:34:09.620Z,7.14
2019-02-28T19:36:37.758Z,7.02
2019-02-28T19:39:07.151Z,7.26
2019-02-28T19:41:37.788Z,7.83
2019-02-28T19:44:06.023Z,7.74
2019-02-28T19:46:34.040Z,7.61
2019-02-28T19:49:02.131Z,7.58
2019-02-28T19:51:30.229Z,7.35
2019-02-28T19:53:58.332Z,7.84
2019-02-28T19:56:26.418Z,7.17
2019-02-28T19:58:54.880Z,7.26
2019-02-28T20:01:23.320Z,7.18
2019-02-28T20:03:51.343Z,7.02
2019-02-28T20:06:19.642Z,7.22
2019-02-28T20:08:48.020Z,6.70
2019-02-28T20:11:16.690Z,7.26
2019-02-28T20:13:44.947Z,7.36
2019-02-28T20:16:13.263Z,7.58
2019-02-28T20:18:42.499Z,7.41
2019-02-28T20:21:10.856Z,7.01
2019-02-28T20:23:38.916Z,6.55
2019-02-28T20:26:07.055Z,6.82
2019-02-28T20:28:35.108Z,6.72
2019-02-28T20:31:03.462Z,6.83
2019-02-28T20:33:31.722Z,7.08
2019-02-28T20:35:59.765Z,7.20
2019-02-28T20:38:27.980Z,6.87
2019-02-28T20:40:56.102Z,6.92
2019-02-28T20:43:24.242Z,6.23
2019-02-28T20:45:52.332Z,6.12
2019-02-28T20:48:20.610Z,6.56
2019-02-28T20:50:48.898Z,6.83
2019-02-28T20:53:17.544Z,6.79
2019-02-28T20:55:45.713Z,6.79
2019-02-28T20:58:15.941Z,6.76
2019-02-28T21:00:43.958Z,6.04
2019-02-28T21:03:12.045Z,5.86
2019-02-28T21:05:40.196Z,5.75
2019-02-28T21:08:08.235Z,6.37
2019-02-28T21:10:36.293Z,7.15
2019-02-28T21:13:04.606Z,7.37
2019-02-28T21:15:32.710Z,6.93
2019-02-28T21:18:00.813Z,6.38
2019-02-28T21:20:29.070Z,6.18
2019-02-28T21:22:57.122Z,6.49
2019-02-28T21:25:25.260Z,6.80
2019-02-28T21:27:53.307Z,6.61
2019-02-28T21:30:21.726Z,6.69
2019-02-28T21:32:49.736Z,6.50
2019-02-28T21:35:18.054Z,6.83
2019-02-28T21:37:46.352Z,6.91
2019-02-28T21:40:15.378Z,6.43
2019-02-28T21:42:43.335Z,6.05
2019-02-28T21:45:13.571Z,6.23
2019-02-28T21:47:41.612Z,6.37
2019-02-28T21:50:11.306Z,6.96
2019-02-28T21:52:39.306Z,6.88
2019-02-28T21:55:08.622Z,5.99
2019-02-28T21:57:36.476Z,6.28
2019-02-28T22:00:06.813Z,6.44
2019-02-28T22:02:34.388Z,6.05
2019-02-28T22:05:02.188Z,5.51
2019-02-28T22:07:29.679Z,5.19
2019-02-28T22:09:57.277Z,5.95
2019-02-28T22:12:24.834Z,5.40
2019-02-28T22:14:52.497Z,5.84
2019-02-28T22:17:20.022Z,5.60
2019-02-28T22:19:47.634Z,5.45
2019-02-28T22:22:15.102Z,5.58
2019-02-28T22:24:42.665Z,6.98
2019-02-28T22:27:10.256Z,6.59
2019-02-28T22:29:37.831Z,6.78
2019-02-28T22:32:24.115Z,6.97
2019-02-28T22:35:10.128Z,7.08
2019-02-28T22:37:37.613Z,7.21
2019-02-28T22:40:05.334Z,7.92
2019-02-28T22:42:32.849Z,7.46
2019-02-28T22:45:00.395Z,7.47
2019-02-28T22:47:27.955Z,8.37
2019-02-28T22:49:55.470Z,7.53
2019-02-28T22:52:24.738Z,7.58
2019-02-28T22:54:52.370Z,8.49
2019-02-28T22:57:19.982Z,8.61
2019-02-28T22:59:47.516Z,7.84
2019-02-28T23:02:15.033Z,8.10
2019-02-28T23:04:42.616Z,9.03
2019-02-28T23:07:10.213Z,9.21
2019-02-28T23:09:37.750Z,8.01
2019-02-28T23:12:05.249Z,8.46
2019-02-28T23:14:32.850Z,9.26
2019-02-28T23:17:00.310Z,8.00
2019-02-28T23:19:27.879Z,8.77
2019-02-28T23:21:55.393Z,9.31
2019-02-28T23:24:22.924Z,8.11
2019-02-28T23:27:09.795Z,7.80
2019-02-28T23:29:38.339Z,7.97
2019-02-28T23:32:28.395Z,7.81
2019-02-28T23:34:56.492Z,7.81
2019-02-28T23:37:24.050Z,7.70
2019-02-28T23:39:51.580Z,8.06
2019-02-28T23:42:19.043Z,8.16
2019-02-28T23:44:46.502Z,8.36
2019-02-28T23:47:13.965Z,8.27
2019-02-28T23:49:41.550Z,7.78
2019-02-28T23:52:09.042Z,7.48
2019-02-28T23:54:36.624Z,8.83
2019-02-28T23:57:04.116Z,9.18
2019-02-28T23:59:31.610Z,8.39
